createdAt,value
2016-08-25T00:00:57.005Z,0
2016-08-25T00:01:57.708Z,0
2016-08-25T00:02:57.717Z,0
2016-08-25T00:03:56.301Z,0
2016-08-25T00:04:57.005Z,0
2016-08-25T00:05:57.013Z,0
2016-08-25T00:06:57.721Z,0
2016-08-25T00:07:57.013Z,0
2016-08-25T00:08:57.009Z,0
2016-08-25T00:09:57.717Z,0
2016-08-25T00:10:57.717Z,0
2016-08-25T00:11:56.317Z,0
2016-08-25T00:12:57.737Z,0
2016-08-25T00:13:57.021Z,0
2016-08-25T00:15:33.282Z,0
2016-08-25T00:16:05.061Z,0
2016-08-25T00:16:58.378Z,0
2016-08-25T00:17:59.593Z,0
2016-08-25T00:19:02.042Z,0
2016-08-25T00:19:58.193Z,0
2016-08-25T00:20:57.265Z,0
2016-08-25T00:22:00.625Z,0
2016-08-25T00:22:59.618Z,0
2016-08-25T00:24:00.569Z,0
2016-08-25T00:25:32.149Z,0
2016-08-25T00:25:57.022Z,0
2016-08-25T00:26:57.730Z,0
2016-08-25T00:27:57.026Z,0
2016-08-25T00:29:29.406Z,0
2016-08-25T00:30:00.028Z,0
2016-08-25T00:31:01.278Z,0
2016-08-25T00:32:01.478Z,0
2016-08-25T00:32:57.259Z,0
2016-08-25T00:33:58.058Z,0
2016-08-25T00:34:57.958Z,0
2016-08-25T00:35:56.523Z,0
2016-08-25T00:36:57.958Z,0
2016-08-25T00:37:57.238Z,0
2016-08-25T00:38:57.959Z,0
2016-08-25T00:39:57.241Z,0
2016-08-25T00:40:57.963Z,0
2016-08-25T00:41:57.962Z,0
2016-08-25T00:42:57.962Z,0
2016-08-25T00:43:57.243Z,0
2016-08-25T00:44:57.246Z,0
2016-08-25T00:45:57.962Z,0
2016-08-25T00:46:57.967Z,0
2016-08-25T00:47:57.247Z,0
2016-08-25T00:48:56.531Z,0
2016-08-25T00:49:57.967Z,0
2016-08-25T00:50:57.966Z,0
2016-08-25T00:51:57.259Z,0
2016-08-25T00:52:57.967Z,0
2016-08-25T00:53:56.530Z,0
2016-08-25T00:54:57.967Z,0
2016-08-25T00:55:57.747Z,0
2016-08-25T00:56:57.756Z,0
2016-08-25T00:57:56.343Z,0
2016-08-25T00:58:57.043Z,0
2016-08-25T00:59:57.747Z,0
2016-08-25T01:00:57.759Z,0
2016-08-25T01:01:57.047Z,0
2016-08-25T01:02:57.752Z,0
2016-08-25T01:03:57.047Z,0
2016-08-25T01:04:57.052Z,0
2016-08-25T01:05:57.764Z,0
2016-08-25T01:06:57.759Z,0
2016-08-25T01:07:57.756Z,0
2016-08-25T01:08:57.763Z,0
2016-08-25T01:09:57.747Z,0
2016-08-25T01:10:57.756Z,0
2016-08-25T01:11:57.056Z,0
2016-08-25T01:12:57.755Z,0
2016-08-25T01:13:57.760Z,0
2016-08-25T01:14:57.756Z,0
2016-08-25T01:15:57.759Z,0
2016-08-25T01:16:57.759Z,0
2016-08-25T01:17:57.760Z,0
2016-08-25T01:18:57.777Z,0
2016-08-25T01:19:57.755Z,0
2016-08-25T01:20:57.760Z,0
2016-08-25T01:21:57.057Z,0
2016-08-25T01:22:57.056Z,0
2016-08-25T01:23:57.772Z,0
2016-08-25T01:24:57.761Z,0
2016-08-25T01:25:56.365Z,0
2016-08-25T01:26:57.780Z,0
2016-08-25T01:27:57.765Z,0
2016-08-25T01:28:57.055Z,0
2016-08-25T01:29:57.761Z,0
2016-08-25T01:30:57.777Z,0
2016-08-25T01:31:57.056Z,0
2016-08-25T01:32:57.065Z,0
2016-08-25T01:33:57.761Z,0
2016-08-25T01:34:57.065Z,0
2016-08-25T01:35:57.765Z,0
2016-08-25T01:36:57.764Z,0
2016-08-25T01:37:57.773Z,0
2016-08-25T01:38:57.061Z,0
2016-08-25T01:39:57.774Z,0
2016-08-25T01:40:57.778Z,0
2016-08-25T01:41:57.061Z,0
2016-08-25T01:42:57.061Z,0
2016-08-25T01:43:57.769Z,0
2016-08-25T01:44:55.653Z,0
2016-08-25T01:45:57.769Z,0
2016-08-25T01:46:57.076Z,0
2016-08-25T01:47:57.073Z,0
2016-08-25T01:48:57.062Z,0
2016-08-25T01:49:57.770Z,0
2016-08-25T01:50:57.769Z,0
2016-08-25T01:51:57.770Z,0
2016-08-25T01:52:57.778Z,0
2016-08-25T01:53:57.770Z,0
2016-08-25T01:54:57.766Z,0
2016-08-25T01:55:57.773Z,0
2016-08-25T01:56:57.777Z,0
2016-08-25T01:57:57.065Z,0
2016-08-25T01:58:57.769Z,0
2016-08-25T01:59:57.778Z,0
2016-08-25T02:00:57.770Z,0
2016-08-25T02:01:57.771Z,0
2016-08-25T02:02:57.766Z,0
2016-08-25T02:03:57.070Z,0
2016-08-25T02:04:57.083Z,0
2016-08-25T02:05:57.778Z,0
2016-08-25T02:06:57.774Z,0
2016-08-25T02:07:57.778Z,0
2016-08-25T02:08:57.798Z,0
2016-08-25T02:09:57.783Z,0
2016-08-25T02:10:57.783Z,0
2016-08-25T02:11:57.070Z,0
2016-08-25T02:12:57.774Z,0
2016-08-25T02:13:57.787Z,0
2016-08-25T02:14:57.170Z,0
2016-08-25T02:15:57.774Z,0
2016-08-25T02:16:57.075Z,0
2016-08-25T02:17:57.790Z,0
2016-08-25T02:18:57.775Z,0
2016-08-25T02:19:56.367Z,0
2016-08-25T02:20:57.775Z,0
2016-08-25T02:21:57.074Z,0
2016-08-25T02:22:57.778Z,0
2016-08-25T02:23:57.071Z,0
2016-08-25T02:24:57.070Z,0
2016-08-25T02:25:57.775Z,0
2016-08-25T02:26:57.075Z,0
2016-08-25T02:27:57.782Z,0
2016-08-25T02:28:57.779Z,0
2016-08-25T02:29:57.775Z,0
2016-08-25T02:30:57.771Z,0
2016-08-25T02:31:57.779Z,0
2016-08-25T02:32:57.783Z,0
2016-08-25T02:33:57.827Z,0
2016-08-25T02:34:57.779Z,0
2016-08-25T02:35:57.779Z,0
2016-08-25T02:36:57.779Z,0
2016-08-25T02:37:57.779Z,0
2016-08-25T02:38:57.780Z,0
2016-08-25T02:39:56.371Z,0
2016-08-25T02:40:57.075Z,0
2016-08-25T02:41:57.779Z,0
2016-08-25T02:42:57.784Z,0
2016-08-25T02:43:57.075Z,0
2016-08-25T02:44:57.779Z,0
2016-08-25T02:45:56.371Z,0
2016-08-25T02:46:57.086Z,0
2016-08-25T02:47:57.779Z,0
2016-08-25T02:48:57.780Z,0
2016-08-25T02:49:57.780Z,0
2016-08-25T02:50:57.779Z,0
2016-08-25T02:51:57.075Z,0
2016-08-25T02:52:57.780Z,0
2016-08-25T02:53:57.080Z,0
2016-08-25T02:54:57.780Z,0
2016-08-25T02:55:57.779Z,0
2016-08-25T02:56:57.783Z,0
2016-08-25T02:57:57.780Z,0
2016-08-25T02:58:57.775Z,0
2016-08-25T02:59:57.779Z,0
2016-08-25T03:00:57.780Z,0
2016-08-25T03:01:57.779Z,0
2016-08-25T03:02:57.780Z,0
2016-08-25T03:03:57.780Z,0
2016-08-25T03:04:57.779Z,0
2016-08-25T03:05:57.784Z,0
2016-08-25T03:06:57.980Z,0
2016-08-25T03:07:57.076Z,0
2016-08-25T03:08:57.780Z,0
2016-08-25T03:09:57.780Z,0
2016-08-25T03:10:57.072Z,0
2016-08-25T03:11:57.076Z,0
2016-08-25T03:12:57.079Z,0
2016-08-25T03:13:57.775Z,0
2016-08-25T03:14:57.772Z,0
2016-08-25T03:15:57.776Z,0
2016-08-25T03:16:57.780Z,0
2016-08-25T03:17:57.775Z,0
2016-08-25T03:18:57.775Z,0
2016-08-25T03:19:57.073Z,0
2016-08-25T03:20:57.776Z,0
2016-08-25T03:21:57.073Z,0
2016-08-25T03:22:57.076Z,0
2016-08-25T03:23:57.776Z,0
2016-08-25T03:24:57.077Z,0
2016-08-25T03:25:57.073Z,0
2016-08-25T03:26:57.776Z,0
2016-08-25T03:27:57.781Z,0
2016-08-25T03:28:57.776Z,0
2016-08-25T03:29:57.072Z,0
2016-08-25T03:30:57.777Z,0
2016-08-25T03:31:57.777Z,0
2016-08-25T03:32:57.772Z,0
2016-08-25T03:33:57.073Z,0
2016-08-25T03:34:57.085Z,0
2016-08-25T03:35:57.089Z,0
2016-08-25T03:36:57.077Z,0
2016-08-25T03:37:56.373Z,0
2016-08-25T03:38:56.376Z,0
2016-08-25T03:39:57.073Z,0
2016-08-25T03:40:57.773Z,0
2016-08-25T03:41:57.076Z,0
2016-08-25T03:42:57.089Z,0
2016-08-25T03:43:57.777Z,0
2016-08-25T03:44:57.776Z,0
2016-08-25T03:45:57.073Z,0
2016-08-25T03:46:57.777Z,0
2016-08-25T03:47:57.793Z,0
2016-08-25T03:48:57.777Z,0
2016-08-25T03:49:57.077Z,0
2016-08-25T03:50:57.776Z,0
2016-08-25T03:51:57.773Z,0
2016-08-25T03:52:57.777Z,0
2016-08-25T03:53:57.772Z,0
2016-08-25T03:54:57.069Z,0
2016-08-25T03:55:57.773Z,0
2016-08-25T03:56:57.784Z,0
2016-08-25T03:57:57.777Z,0
2016-08-25T03:58:58.177Z,0
2016-08-25T03:59:56.365Z,0
2016-08-25T04:00:57.074Z,0
2016-08-25T04:01:57.073Z,0
2016-08-25T04:02:57.768Z,0
2016-08-25T04:03:57.773Z,0
2016-08-25T04:04:56.366Z,0
2016-08-25T04:05:57.797Z,0
2016-08-25T04:06:57.070Z,0
2016-08-25T04:07:57.773Z,0
2016-08-25T04:08:57.069Z,0
2016-08-25T04:09:57.086Z,0
2016-08-25T04:10:57.773Z,0
2016-08-25T04:11:57.082Z,0
2016-08-25T04:12:57.769Z,0
2016-08-25T04:13:57.769Z,0
2016-08-25T04:14:57.769Z,0
2016-08-25T04:15:57.769Z,0
2016-08-25T04:16:57.778Z,0
2016-08-25T04:17:57.077Z,0
2016-08-25T04:18:57.769Z,0
2016-08-25T04:19:57.074Z,0
2016-08-25T04:20:57.769Z,0
2016-08-25T04:21:57.778Z,0
2016-08-25T04:22:57.065Z,0
2016-08-25T04:23:57.065Z,0
2016-08-25T04:24:57.770Z,0
2016-08-25T04:25:57.771Z,0
2016-08-25T04:26:57.769Z,0
2016-08-25T04:27:57.769Z,0
2016-08-25T04:28:57.774Z,5
2016-08-25T04:29:57.773Z,5
2016-08-25T04:30:57.766Z,5
2016-08-25T04:31:57.766Z,5
2016-08-25T04:32:57.778Z,5
2016-08-25T04:33:57.822Z,5
2016-08-25T04:34:57.766Z,5
2016-08-25T04:35:57.766Z,5
2016-08-25T04:36:57.765Z,10
2016-08-25T04:37:57.072Z,10
2016-08-25T04:38:57.767Z,10
2016-08-25T04:39:57.766Z,10
2016-08-25T04:40:57.062Z,10
2016-08-25T04:41:57.063Z,10
2016-08-25T04:42:57.767Z,15
2016-08-25T04:43:57.771Z,15
2016-08-25T04:44:57.071Z,20
2016-08-25T04:45:57.066Z,30
2016-08-25T04:46:57.771Z,40
2016-08-25T04:47:57.771Z,40
2016-08-25T04:48:57.762Z,45
2016-08-25T04:49:57.762Z,50
2016-08-25T04:50:57.764Z,60
2016-08-25T04:51:57.763Z,60
2016-08-25T04:52:57.058Z,65
2016-08-25T04:53:57.771Z,65
2016-08-25T04:54:57.763Z,70
2016-08-25T04:55:57.763Z,75
2016-08-25T04:56:57.767Z,80
2016-08-25T04:57:57.775Z,85
2016-08-25T04:58:57.763Z,90
2016-08-25T04:59:57.767Z,95
2016-08-25T05:00:57.763Z,100
2016-08-25T05:01:57.058Z,105
2016-08-25T05:02:57.060Z,110
2016-08-25T05:03:57.763Z,110
2016-08-25T05:04:57.763Z,115
2016-08-25T05:05:56.359Z,115
2016-08-25T05:06:56.355Z,120
2016-08-25T05:07:57.766Z,125
2016-08-25T05:08:56.356Z,135
2016-08-25T05:09:56.360Z,140
2016-08-25T05:10:57.767Z,145
2016-08-25T05:11:57.771Z,150
2016-08-25T05:12:57.071Z,155
2016-08-25T05:13:57.064Z,155
2016-08-25T05:14:57.772Z,165
2016-08-25T05:15:57.772Z,165
2016-08-25T05:16:57.771Z,175
2016-08-25T05:17:55.665Z,180
2016-08-25T05:18:57.784Z,185
2016-08-25T05:19:57.776Z,200
2016-08-25T05:20:57.071Z,200
2016-08-25T05:21:57.777Z,205
2016-08-25T05:22:57.071Z,215
2016-08-25T05:23:57.793Z,220
2016-08-25T05:24:57.088Z,220
2016-08-25T05:25:57.788Z,220
2016-08-25T05:26:57.783Z,225
2016-08-25T05:27:57.100Z,235
2016-08-25T05:28:57.796Z,245
2016-08-25T05:29:57.788Z,250
2016-08-25T05:30:57.088Z,265
2016-08-25T05:31:57.101Z,265
2016-08-25T05:32:57.800Z,265
2016-08-25T05:33:57.113Z,280
2016-08-25T05:34:57.805Z,285
2016-08-25T05:35:57.100Z,295
2016-08-25T05:36:57.805Z,300
2016-08-25T05:37:57.809Z,320
2016-08-25T05:38:57.809Z,320
2016-08-25T05:39:57.828Z,325
2016-08-25T05:40:57.816Z,330
2016-08-25T05:41:57.816Z,335
2016-08-25T05:42:57.825Z,340
2016-08-25T05:43:57.825Z,340
2016-08-25T05:44:57.821Z,345
2016-08-25T05:45:57.827Z,350
2016-08-25T05:46:57.833Z,355
2016-08-25T05:47:57.833Z,365
2016-08-25T05:48:57.849Z,370
2016-08-25T05:49:57.841Z,380
2016-08-25T05:50:57.845Z,385
2016-08-25T05:51:57.848Z,390
2016-08-25T05:52:57.853Z,400
2016-08-25T05:53:57.864Z,395
2016-08-25T05:54:57.857Z,400
2016-08-25T05:55:57.862Z,410
2016-08-25T05:56:57.877Z,415
2016-08-25T05:57:57.868Z,430
2016-08-25T05:58:57.873Z,450
2016-08-25T05:59:57.885Z,450
2016-08-25T06:00:57.885Z,450
2016-08-25T06:01:57.897Z,455
2016-08-25T06:02:57.182Z,465
2016-08-25T06:03:57.885Z,460
2016-08-25T06:04:57.901Z,455
2016-08-25T06:05:57.898Z,475
2016-08-25T06:06:57.901Z,475
2016-08-25T06:07:57.912Z,485
2016-08-25T06:08:57.914Z,520
2016-08-25T06:09:57.918Z,520
2016-08-25T06:10:57.929Z,500
2016-08-25T06:11:57.941Z,510
2016-08-25T06:12:57.937Z,515
2016-08-25T06:13:57.949Z,545
2016-08-25T06:14:57.938Z,555
2016-08-25T06:15:57.946Z,550
2016-08-25T06:16:57.949Z,535
2016-08-25T06:17:57.954Z,575
2016-08-25T06:18:57.964Z,570
2016-08-25T06:19:57.965Z,575
2016-08-25T06:20:57.966Z,570
2016-08-25T06:21:57.974Z,590
2016-08-25T06:22:58.037Z,600
2016-08-25T06:23:57.986Z,605
2016-08-25T06:24:57.989Z,590
2016-08-25T06:25:57.994Z,610
2016-08-25T06:26:57.998Z,595
2016-08-25T06:27:58.001Z,600
2016-08-25T06:28:58.017Z,625
2016-08-25T06:29:58.018Z,615
2016-08-25T06:30:58.022Z,620
2016-08-25T06:31:58.025Z,610
2016-08-25T06:32:58.030Z,610
2016-08-25T06:33:58.139Z,605
2016-08-25T06:34:58.042Z,630
2016-08-25T06:35:58.053Z,645
2016-08-25T06:36:58.054Z,640
2016-08-25T06:37:58.070Z,650
2016-08-25T06:38:58.086Z,660
2016-08-25T06:39:58.074Z,645
2016-08-25T06:40:58.095Z,625
2016-08-25T06:41:58.086Z,645
2016-08-25T06:42:58.110Z,675
2016-08-25T06:43:58.098Z,675
2016-08-25T06:44:58.103Z,660
2016-08-25T06:45:58.118Z,690
2016-08-25T06:46:58.109Z,715
2016-08-25T06:47:58.123Z,670
2016-08-25T06:48:58.131Z,700
2016-08-25T06:49:58.142Z,700
2016-08-25T06:50:58.151Z,690
2016-08-25T06:51:58.151Z,710
2016-08-25T06:52:58.168Z,730
2016-08-25T06:53:58.163Z,745
2016-08-25T06:54:58.179Z,730
2016-08-25T06:55:58.179Z,725
2016-08-25T06:56:58.183Z,780
2016-08-25T06:57:58.190Z,760
2016-08-25T06:58:58.199Z,755
2016-08-25T06:59:58.203Z,775
2016-08-25T07:00:58.211Z,765
2016-08-25T07:01:58.219Z,745
2016-08-25T07:02:58.228Z,765
2016-08-25T07:03:58.247Z,805
2016-08-25T07:04:58.239Z,780
2016-08-25T07:05:58.262Z,775
2016-08-25T07:06:58.263Z,785
2016-08-25T07:07:58.258Z,805
2016-08-25T07:08:58.271Z,800
2016-08-25T07:09:58.276Z,835
2016-08-25T07:10:58.283Z,830
2016-08-25T07:11:58.287Z,835
2016-08-25T07:12:58.299Z,810
2016-08-25T07:13:58.307Z,835
2016-08-25T07:14:58.315Z,875
2016-08-25T07:15:58.319Z,830
2016-08-25T07:16:58.332Z,850
2016-08-25T07:17:58.335Z,850
2016-08-25T07:18:58.344Z,850
2016-08-25T07:19:58.352Z,890
2016-08-25T07:20:58.358Z,900
2016-08-25T07:21:58.376Z,860
2016-08-25T07:22:58.375Z,890
2016-08-25T07:23:58.394Z,865
2016-08-25T07:24:58.403Z,895
2016-08-25T07:25:58.399Z,910
2016-08-25T07:26:58.419Z,865
2016-08-25T07:27:58.416Z,895
2016-08-25T07:28:58.447Z,930
2016-08-25T07:29:58.431Z,870
2016-08-25T07:30:58.440Z,910
2016-08-25T07:31:58.447Z,960
2016-08-25T07:32:58.455Z,885
2016-08-25T07:33:58.571Z,915
2016-08-25T07:34:58.472Z,955
2016-08-25T07:35:58.488Z,960
2016-08-25T07:36:58.488Z,975
2016-08-25T07:37:58.495Z,1025
2016-08-25T07:38:58.512Z,1080
2016-08-25T07:39:58.535Z,1065
2016-08-25T07:40:58.539Z,1095
2016-08-25T07:41:58.532Z,1105
2016-08-25T07:42:58.539Z,1030
2016-08-25T07:43:58.548Z,995
2016-08-25T07:44:58.556Z,1080
2016-08-25T07:45:58.563Z,1070
2016-08-25T07:46:58.576Z,1020
2016-08-25T07:47:58.584Z,1020
2016-08-25T07:48:58.592Z,995
2016-08-25T07:49:58.609Z,955
2016-08-25T07:50:58.607Z,955
2016-08-25T07:51:58.618Z,965
2016-08-25T07:52:58.624Z,1035
2016-08-25T07:53:58.633Z,1055
2016-08-25T07:54:58.644Z,1000
2016-08-25T07:55:58.653Z,1050
2016-08-25T07:56:58.670Z,1005
2016-08-25T07:57:58.668Z,1020
2016-08-25T07:58:58.677Z,1015
2016-08-25T07:59:58.684Z,990
2016-08-25T08:00:58.697Z,990
2016-08-25T08:01:58.704Z,990
2016-08-25T08:02:58.713Z,1005
2016-08-25T08:03:58.721Z,1010
2016-08-25T08:04:58.025Z,1050
2016-08-25T08:05:58.742Z,1045
2016-08-25T08:06:58.045Z,975
2016-08-25T08:07:58.758Z,945
2016-08-25T08:08:58.774Z,995
2016-08-25T08:09:58.778Z,995
2016-08-25T08:10:58.786Z,1010
2016-08-25T08:11:58.797Z,990
2016-08-25T08:12:58.802Z,1050
2016-08-25T08:13:58.810Z,980
2016-08-25T08:14:58.818Z,950
2016-08-25T08:15:58.826Z,1040
2016-08-25T08:16:58.842Z,1170
2016-08-25T08:17:58.850Z,1200
2016-08-25T08:18:58.857Z,1130
2016-08-25T08:19:58.864Z,1130
2016-08-25T08:20:58.870Z,1170
2016-08-25T08:21:58.878Z,1055
2016-08-25T08:22:58.894Z,920
2016-08-25T08:23:58.902Z,795
2016-08-25T08:24:58.903Z,785
2016-08-25T08:25:58.910Z,760
2016-08-25T08:26:58.919Z,700
2016-08-25T08:27:58.937Z,600
2016-08-25T08:28:58.938Z,635
2016-08-25T08:29:58.962Z,710
2016-08-25T08:30:58.955Z,650
2016-08-25T08:31:58.963Z,595
2016-08-25T08:32:58.971Z,670
2016-08-25T08:33:58.279Z,600
2016-08-25T08:34:58.999Z,420
2016-08-25T08:35:58.998Z,285
2016-08-25T08:36:59.003Z,195
2016-08-25T08:37:59.034Z,180
2016-08-25T08:38:59.035Z,170
2016-08-25T08:39:59.026Z,170
2016-08-25T08:40:59.035Z,165
2016-08-25T08:41:59.046Z,165
2016-08-25T08:42:59.051Z,160
2016-08-25T08:43:59.067Z,160
2016-08-25T08:44:59.071Z,160
2016-08-25T08:45:59.079Z,155
2016-08-25T08:46:59.091Z,155
2016-08-25T08:47:59.091Z,155
2016-08-25T08:48:59.095Z,155
2016-08-25T08:49:59.103Z,155
2016-08-25T08:50:59.112Z,155
2016-08-25T08:51:59.120Z,150
2016-08-25T08:52:59.136Z,150
2016-08-25T08:53:59.135Z,150
2016-08-25T08:54:59.147Z,145
2016-08-25T08:55:59.148Z,145
2016-08-25T08:56:59.164Z,145
2016-08-25T08:57:59.172Z,145
2016-08-25T08:58:59.172Z,145
2016-08-25T08:59:59.179Z,140
2016-08-25T09:00:59.208Z,140
2016-08-25T09:01:59.192Z,140
2016-08-25T09:02:59.199Z,140
2016-08-25T09:03:59.212Z,140
2016-08-25T09:04:59.212Z,140
2016-08-25T09:05:59.219Z,135
2016-08-25T09:06:58.524Z,135
2016-08-25T09:07:59.236Z,135
2016-08-25T09:08:59.244Z,135
2016-08-25T09:09:59.248Z,135
2016-08-25T09:10:59.260Z,135
2016-08-25T09:11:59.260Z,130
2016-08-25T09:12:59.268Z,130
2016-08-25T09:13:59.273Z,130
2016-08-25T09:14:59.285Z,125
2016-08-25T09:15:59.284Z,125
2016-08-25T09:16:58.589Z,125
2016-08-25T09:17:59.313Z,125
2016-08-25T09:18:59.305Z,120
2016-08-25T09:19:59.317Z,120
2016-08-25T09:20:59.317Z,120
2016-08-25T09:21:59.328Z,120
2016-08-25T09:22:59.332Z,120
2016-08-25T09:23:59.338Z,120
2016-08-25T09:24:59.345Z,120
2016-08-25T09:25:59.349Z,120
2016-08-25T09:26:59.365Z,120
2016-08-25T09:27:59.357Z,120
2016-08-25T09:28:59.369Z,120
2016-08-25T09:29:59.372Z,115
2016-08-25T09:30:59.377Z,115
2016-08-25T09:31:59.385Z,115
2016-08-25T09:32:59.393Z,115
2016-08-25T09:33:59.393Z,115
2016-08-25T09:34:59.416Z,115
2016-08-25T09:35:59.406Z,115
2016-08-25T09:36:59.413Z,115
2016-08-25T09:37:59.416Z,115
2016-08-25T09:38:59.429Z,115
2016-08-25T09:39:59.429Z,115
2016-08-25T09:40:59.433Z,110
2016-08-25T09:41:59.442Z,110
2016-08-25T09:42:59.445Z,110
2016-08-25T09:43:59.457Z,110
2016-08-25T09:44:59.457Z,110
2016-08-25T09:45:59.461Z,110
2016-08-25T09:46:59.465Z,110
2016-08-25T09:47:59.473Z,110
2016-08-25T09:48:59.489Z,110
2016-08-25T09:49:59.482Z,110
2016-08-25T09:50:59.489Z,110
2016-08-25T09:51:59.497Z,110
2016-08-25T09:52:59.494Z,110
2016-08-25T09:53:59.501Z,110
2016-08-25T09:54:59.510Z,110
2016-08-25T09:55:59.524Z,110
2016-08-25T09:56:59.518Z,105
2016-08-25T09:57:59.521Z,105
2016-08-25T09:59:13.726Z,105
2016-08-25T09:59:59.534Z,105
2016-08-25T10:00:59.538Z,105
2016-08-25T10:01:59.549Z,105
2016-08-25T10:02:59.545Z,105
2016-08-25T10:03:59.562Z,105
2016-08-25T10:04:59.574Z,105
2016-08-25T10:05:59.571Z,105
2016-08-25T10:06:59.566Z,105
2016-08-25T10:07:59.578Z,105
2016-08-25T10:08:59.577Z,105
2016-08-25T10:09:59.633Z,105
2016-08-25T10:10:59.586Z,105
2016-08-25T10:11:59.590Z,105
2016-08-25T10:12:58.910Z,105
2016-08-25T10:13:59.602Z,105
2016-08-25T10:14:59.606Z,105
2016-08-25T10:15:59.610Z,105
2016-08-25T10:16:59.630Z,100
2016-08-25T10:17:59.618Z,100
2016-08-25T10:18:59.623Z,100
2016-08-25T10:19:59.634Z,100
2016-08-25T10:20:59.642Z,100
2016-08-25T10:21:59.638Z,100
2016-08-25T10:22:59.643Z,100
2016-08-25T10:23:59.647Z,100
2016-08-25T10:24:59.662Z,100
2016-08-25T10:25:59.655Z,100
2016-08-25T10:26:59.671Z,100
2016-08-25T10:27:59.666Z,100
2016-08-25T10:28:59.671Z,100
2016-08-25T10:29:59.675Z,100
2016-08-25T10:30:59.690Z,100
2016-08-25T10:31:59.683Z,100
2016-08-25T10:32:59.687Z,100
2016-08-25T10:33:59.747Z,100
2016-08-25T10:34:59.695Z,100
2016-08-25T10:35:59.699Z,100
2016-08-25T10:36:59.707Z,95
2016-08-25T10:37:59.711Z,95
2016-08-25T10:38:59.722Z,95
2016-08-25T10:39:59.027Z,95
2016-08-25T10:40:59.723Z,95
2016-08-25T10:41:59.731Z,95
2016-08-25T10:42:59.732Z,95
2016-08-25T10:43:59.739Z,95
2016-08-25T10:44:59.739Z,95
2016-08-25T10:45:59.759Z,95
2016-08-25T10:46:59.745Z,95
2016-08-25T10:47:59.047Z,95
2016-08-25T10:48:59.760Z,95
2016-08-25T10:49:59.760Z,95
2016-08-25T10:50:59.764Z,95
2016-08-25T10:51:59.767Z,95
2016-08-25T10:52:59.772Z,95
2016-08-25T10:53:59.784Z,95
2016-08-25T10:54:59.784Z,90
2016-08-25T10:55:59.788Z,90
2016-08-25T10:56:59.792Z,90
2016-08-25T10:57:59.792Z,90
2016-08-25T10:58:59.800Z,90
2016-08-25T10:59:59.812Z,90
2016-08-25T11:00:59.809Z,90
2016-08-25T11:01:59.812Z,90
2016-08-25T11:02:59.824Z,90
2016-08-25T11:03:59.820Z,90
2016-08-25T11:04:59.824Z,90
2016-08-25T11:05:59.829Z,90
2016-08-25T11:06:59.832Z,90
2016-08-25T11:07:59.836Z,90
2016-08-25T11:08:59.836Z,90
2016-08-25T11:09:59.151Z,90
2016-08-25T11:10:59.848Z,90
2016-08-25T11:11:59.852Z,90
2016-08-25T11:12:59.864Z,90
2016-08-25T11:13:59.860Z,90
2016-08-25T11:14:59.876Z,90
2016-08-25T11:15:59.867Z,85
2016-08-25T11:16:59.874Z,85
2016-08-25T11:17:59.885Z,85
2016-08-25T11:18:59.872Z,85
2016-08-25T11:19:59.880Z,85
2016-08-25T11:20:59.885Z,85
2016-08-25T11:21:59.898Z,85
2016-08-25T11:22:59.901Z,85
2016-08-25T11:23:59.898Z,85
2016-08-25T11:24:59.901Z,85
2016-08-25T11:25:59.904Z,85
2016-08-25T11:26:59.909Z,85
2016-08-25T11:27:59.917Z,85
2016-08-25T11:28:59.916Z,85
2016-08-25T11:29:59.921Z,85
2016-08-25T11:30:59.925Z,85
2016-08-25T11:31:59.928Z,85
2016-08-25T11:32:59.933Z,85
2016-08-25T11:33:59.933Z,80
2016-08-25T11:34:59.937Z,80
2016-08-25T11:35:59.953Z,80
2016-08-25T11:36:59.949Z,80
2016-08-25T11:37:59.953Z,80
2016-08-25T11:38:59.957Z,80
2016-08-25T11:39:59.965Z,80
2016-08-25T11:40:59.973Z,80
2016-08-25T11:41:59.977Z,80
2016-08-25T11:42:59.973Z,80
2016-08-25T11:43:59.986Z,80
2016-08-25T11:45:59.993Z,80
2016-08-25T11:46:59.985Z,80
2016-08-25T11:47:59.993Z,80
2016-08-25T11:49:00.013Z,80
2016-08-25T11:49:59.997Z,80
2016-08-25T11:51:00.006Z,80
2016-08-25T11:52:00.006Z,80
2016-08-25T11:53:00.014Z,80
2016-08-25T11:54:00.022Z,75
2016-08-25T11:55:00.013Z,75
2016-08-25T11:56:00.057Z,75
2016-08-25T11:57:00.042Z,75
2016-08-25T11:58:00.033Z,75
2016-08-25T11:59:00.034Z,75
2016-08-25T12:00:00.038Z,75
2016-08-25T12:01:00.038Z,75
2016-08-25T12:02:00.041Z,75
2016-08-25T12:03:00.054Z,75
2016-08-25T12:04:00.058Z,75
2016-08-25T12:05:00.054Z,75
2016-08-25T12:06:00.058Z,75
2016-08-25T12:07:00.062Z,75
2016-08-25T12:08:00.078Z,75
2016-08-25T12:09:00.071Z,75
2016-08-25T12:10:00.074Z,75
2016-08-25T12:11:00.074Z,75
2016-08-25T12:12:00.078Z,75
2016-08-25T12:13:00.083Z,75
2016-08-25T12:14:00.090Z,75
2016-08-25T12:15:00.098Z,75
2016-08-25T12:16:00.094Z,75
2016-08-25T12:17:00.098Z,75
2016-08-25T12:18:00.102Z,70
2016-08-25T12:19:00.106Z,70
2016-08-25T12:20:00.110Z,70
2016-08-25T12:21:00.114Z,70
2016-08-25T12:21:59.419Z,70
2016-08-25T12:23:00.118Z,70
2016-08-25T12:24:00.134Z,70
2016-08-25T12:25:00.126Z,70
2016-08-25T12:26:00.131Z,70
2016-08-25T12:27:00.139Z,70
2016-08-25T12:28:00.139Z,70
2016-08-25T12:29:00.147Z,70
2016-08-25T12:30:00.143Z,70
2016-08-25T12:31:00.155Z,70
2016-08-25T12:32:00.163Z,70
2016-08-25T12:33:00.154Z,70
2016-08-25T12:34:00.167Z,70
2016-08-25T12:35:00.158Z,70
2016-08-25T12:36:00.168Z,70
2016-08-25T12:37:00.167Z,70
2016-08-25T12:38:00.171Z,70
2016-08-25T12:39:00.175Z,70
2016-08-25T12:40:00.179Z,70
2016-08-25T12:41:00.187Z,70
2016-08-25T12:42:00.182Z,70
2016-08-25T12:42:59.487Z,70
2016-08-25T12:44:00.191Z,65
2016-08-25T12:45:00.198Z,65
2016-08-25T12:46:00.199Z,65
2016-08-25T12:47:00.203Z,65
2016-08-25T12:48:00.207Z,65
2016-08-25T12:49:00.227Z,65
2016-08-25T12:50:00.215Z,65
2016-08-25T12:51:00.219Z,65
2016-08-25T12:52:00.224Z,65
2016-08-25T12:53:00.222Z,65
2016-08-25T12:54:00.227Z,65
2016-08-25T12:55:00.232Z,65
2016-08-25T12:56:00.236Z,65
2016-08-25T12:57:00.251Z,65
2016-08-25T12:58:00.247Z,65
2016-08-25T12:59:00.248Z,65
2016-08-25T12:59:59.552Z,65
2016-08-25T13:01:00.260Z,65
2016-08-25T13:02:00.260Z,65
2016-08-25T13:03:00.260Z,65
2016-08-25T13:04:00.263Z,65
2016-08-25T13:05:00.272Z,65
2016-08-25T13:06:00.276Z,65
2016-08-25T13:07:00.272Z,65
2016-08-25T13:08:00.283Z,65
2016-08-25T13:09:00.280Z,65
2016-08-25T13:10:00.289Z,65
2016-08-25T13:11:00.288Z,65
2016-08-25T13:12:00.287Z,65
2016-08-25T13:13:00.296Z,65
2016-08-25T13:14:00.296Z,65
2016-08-25T13:15:00.300Z,60
2016-08-25T13:16:00.304Z,60
2016-08-25T13:17:00.308Z,60
2016-08-25T13:18:00.313Z,60
2016-08-25T13:18:59.613Z,60
2016-08-25T13:20:00.316Z,60
2016-08-25T13:21:00.325Z,60
2016-08-25T13:22:00.338Z,60
2016-08-25T13:23:00.328Z,60
2016-08-25T13:24:00.341Z,60
2016-08-25T13:25:00.333Z,60
2016-08-25T13:26:00.337Z,60
2016-08-25T13:27:00.341Z,60
2016-08-25T13:28:00.349Z,60
2016-08-25T13:29:00.348Z,60
2016-08-25T13:30:00.353Z,60
2016-08-25T13:31:00.357Z,60
2016-08-25T13:32:00.357Z,60
2016-08-25T13:33:00.361Z,60
2016-08-25T13:34:00.373Z,60
2016-08-25T13:35:00.377Z,60
2016-08-25T13:36:00.369Z,60
2016-08-25T13:37:00.373Z,60
2016-08-25T13:38:00.387Z,60
2016-08-25T13:39:00.381Z,60
2016-08-25T13:40:00.385Z,60
2016-08-25T13:41:00.389Z,60
2016-08-25T13:42:00.393Z,60
2016-08-25T13:42:59.689Z,60
2016-08-25T13:44:00.397Z,60
2016-08-25T13:45:00.401Z,60
2016-08-25T13:46:00.405Z,60
2016-08-25T13:47:00.406Z,60
2016-08-25T13:48:00.413Z,60
2016-08-25T13:49:00.712Z,60
2016-08-25T13:50:00.433Z,60
2016-08-25T13:51:00.429Z,60
2016-08-25T13:52:00.422Z,60
2016-08-25T13:53:00.438Z,55
2016-08-25T13:54:00.429Z,55
2016-08-25T13:55:00.443Z,55
2016-08-25T13:56:00.438Z,55
2016-08-25T13:57:00.438Z,55
2016-08-25T13:58:00.442Z,55
2016-08-25T13:59:00.445Z,55
2016-08-25T14:00:00.466Z,55
2016-08-25T14:01:00.454Z,55
2016-08-25T14:02:00.458Z,55
2016-08-25T14:03:00.457Z,55
2016-08-25T14:04:00.466Z,55
2016-08-25T14:05:00.466Z,55
2016-08-25T14:06:00.469Z,55
2016-08-25T14:07:00.474Z,55
2016-08-25T14:08:00.486Z,55
2016-08-25T14:08:59.773Z,55
2016-08-25T14:10:00.482Z,55
2016-08-25T14:11:00.493Z,55
2016-08-25T14:12:00.486Z,55
2016-08-25T14:13:00.490Z,55
2016-08-25T14:14:00.494Z,55